createdAt,value
2022-10-18T06:15:24.311Z,13.54
2022-10-18T06:25:24.265Z,13.67
2022-10-18T06:35:24.349Z,14.05
2022-10-18T06:45:24.330Z,14.07
2022-10-18T06:55:24.396Z,14.09
2022-10-18T07:05:24.393Z,14.06
2022-10-18T07:15:24.435Z,14.05
2022-10-18T07:25:27.090Z,14.04
2022-10-18T07:35:24.365Z,14.08
2022-10-18T07:45:24.485Z,14.15
2022-10-18T07:55:24.493Z,14.23
2022-10-18T08:05:24.429Z,14.43
2022-10-18T08:15:24.431Z,14.68
2022-10-18T08:25:24.426Z,15.09
2022-10-18T08:35:24.408Z,15.33
2022-10-18T08:45:41.110Z,15.64
2022-10-18T08:55:24.391Z,15.41
2022-10-18T09:05:24.454Z,15.29
2022-10-18T09:15:24.485Z,15.41
2022-10-18T09:25:24.406Z,15.56
2022-10-18T09:35:24.481Z,15.65
2022-10-18T09:45:24.431Z,15.63
2022-10-18T09:55:24.396Z,15.64
2022-10-18T10:05:24.585Z,15.64
2022-10-18T10:15:24.542Z,15.86
2022-10-18T10:25:24.515Z,15.78
2022-10-18T10:35:41.359Z,16.55
2022-10-18T10:45:24.580Z,17.06
2022-10-18T10:55:34.828Z,16.42
2022-10-18T11:05:24.575Z,16.30
2022-10-18T11:15:24.535Z,17.76
2022-10-18T11:25:24.764Z,17.09
2022-10-18T11:35:24.609Z,17.72
2022-10-18T11:45:24.598Z,17.91
2022-10-18T11:55:27.687Z,18.11
2022-10-18T12:05:25.028Z,18.43
2022-10-18T12:15:24.527Z,18.61
2022-10-18T12:25:24.628Z,18.78
2022-10-18T12:35:24.665Z,17.88
2022-10-18T12:45:24.814Z,17.73
2022-10-18T12:55:24.595Z,17.75
2022-10-18T13:05:41.049Z,17.94
2022-10-18T13:15:26.562Z,18.13
2022-10-18T13:25:24.560Z,18.28
2022-10-18T13:35:24.607Z,18.18
2022-10-18T13:45:24.700Z,17.52
2022-10-18T13:55:24.603Z,17.60
2022-10-18T14:05:25.678Z,17.74
2022-10-18T14:15:24.618Z,17.51
2022-10-18T14:25:24.619Z,17.36
2022-10-18T14:35:32.498Z,16.97
2022-10-18T14:45:24.642Z,16.68
2022-10-18T14:55:24.623Z,16.98
2022-10-18T15:05:24.525Z,16.81
2022-10-18T15:15:24.651Z,16.51
2022-10-18T15:25:27.994Z,16.54
2022-10-18T15:35:26.356Z,15.97
2022-10-18T15:45:24.766Z,15.26
2022-10-18T15:55:24.656Z,15.03
2022-10-18T16:05:24.754Z,14.63
2022-10-18T16:15:24.668Z,14.19
2022-10-18T16:25:24.893Z,13.76
2022-10-18T16:35:24.883Z,13.54
2022-10-18T16:45:24.890Z,13.34
2022-10-18T16:55:25.053Z,12.96
2022-10-18T17:05:24.931Z,12.71
2022-10-18T17:15:25.192Z,11.89
2022-10-18T17:25:25.009Z,11.63
2022-10-18T17:35:24.931Z,11.04
2022-10-18T17:45:24.931Z,10.66
2022-10-18T17:55:24.979Z,10.58
2022-10-18T18:05:24.930Z,10.55
2022-10-18T18:15:24.939Z,10.05
2022-10-18T18:25:24.824Z,9.99
2022-10-18T18:35:24.993Z,9.81
2022-10-18T18:45:25.206Z,9.59
2022-10-18T18:55:25.343Z,9.47
2022-10-18T19:05:25.486Z,9.54
2022-10-18T19:15:25.550Z,9.65
